MST,Max TemperatureF,Mean TemperatureF,Min TemperatureF,Max Dew PointF,MeanDew PointF,Min DewpointF,Max Humidity, Mean Humidity, Min Humidity, Max Sea Level PressureIn, Mean Sea Level PressureIn, Min Sea Level PressureIn, Max VisibilityMiles, Mean VisibilityMiles, Min VisibilityMiles, Max Wind SpeedMPH, Mean Wind SpeedMPH, Max Gust SpeedMPH,PrecipitationIn, CloudCover, Events, WindDirDegrees
2014-2-1,31,24,17,28,24,16,99,90,61,29.95,29.80,29.70,10,6,0,16,4,20,0.00,7,Snow,208
2014-2-2,29,18,7,22,13,5,99,76,39,30.05,29.99,29.95,10,10,5,5,1,,0.00,4,Snow-Thunderstorm,157
2014-2-3,30,23,16,27,21,12,100,88,64,29.95,29.83,29.74,10,6,0,6,1,,0.00,8,Snow,197
2014-2-4,28,18,7,24,18,6,99,86,49,29.97,29.79,29.72,10,7,0,20,5,29,0.00,5,Fog-Snow,230
2014-2-5,26,16,7,18,8,2,96,67,46,30.07,30.01,29.97,10,9,2,9,1,16,0.00,4,,192
2014-2-6,28,20,12,21,16,8,96,81,63,30.02,29.96,29.90,10,8,1,7,1,,0.00,8,Snow-Thunderstorm,157
2014-2-7,33,26,20,27,22,19,99,87,63,30.07,29.95,29.88,10,6,2,17,3,24,0.00,7,Snow-Thunderstorm,226
2014-2-8,34,28,23,29,26,23,99,90,70,30.21,30.14,30.05,10,8,1,9,2,,0.00,7,Snow-Thunderstorm,132
2014-2-9,42,34,25,33,30,25,100,83,57,30.19,30.10,30.04,10,10,1,13,1,18,0.00,7,Rain-Snow,201
2014-2-10,47,36,23,35,26,14,100,76,37,30.08,30.00,29.90,10,8,0,16,2,24,0.00,4,Fog-Snow-Thunderstorm,271
2014-2-11,41,26,12,20,13,5,77,56,35,30.14,30.09,30.02,10,10,10,10,1,17,0.00,0,Thunderstorm,215
2014-2-12,42,26,11,21,15,9,97,63,32,30.23,30.16,30.11,10,10,10,10,1,,0.00,0,Thunderstorm,181
2014-2-13,52,35,18,24,20,16,93,58,27,30.20,30.11,30.03,10,10,10,15,3,26,0.00,1,,245
2014-2-14,51,38,26,29,25,22,87,61,35,30.21,30.15,30.09,10,10,10,17,4,21,0.00,2,,233
2014-2-15,56,42,28,28,25,17,96,62,22,30.26,30.20,30.16,10,10,10,10,1,,0.00,0,,209
2014-2-16,49,38,26,24,19,6,82,49,21,30.18,30.11,30.02,10,10,10,17,2,24,0.00,2,Thunderstorm,231
2014-2-17,51,36,21,17,9,-4,69,38,11,30.33,30.22,30.13,10,10,10,10,1,,0.00,0,Thunderstorm,227
2014-2-18,53,38,22,22,13,2,67,41,12,30.17,30.11,30.07,10,10,10,10,1,,0.00,0,Thunderstorm,207
2014-2-19,48,38,28,33,18,1,97,51,25,30.07,29.85,29.66,10,10,2,20,4,43,0.00,4,Snow,242
2014-2-20,35,27,19,9,-3,-17,55,30,10,30.15,30.01,29.76,10,10,10,15,7,22,0.00,0,,280
2014-2-21,42,28,13,15,7,2,70,46,21,30.12,30.06,29.99,10,10,10,13,2,17,0.00,0,Thunderstorm,205
2014-2-22,46,35,24,18,12,6,70,44,20,30.05,29.98,29.90,10,10,10,21,4,32,0.00,2,,230
2014-2-23,51,36,21,18,13,5,77,46,16,30.16,30.11,30.05,10,10,10,13,2,23,0.00,0,,213
2014-2-24,54,37,20,17,10,3,72,40,13,30.19,30.15,30.09,10,10,10,14,2,18,0.00,0,Thunderstorm,214
2014-2-25,54,38,22,19,13,8,72,42,16,30.16,30.08,29.99,10,10,10,16,2,24,0.00,0,,221
2014-2-26,53,39,25,21,16,12,77,45,20,30.09,30.02,29.94,10,10,10,13,2,18,0.00,1,Thunderstorm,223
2014-2-27,42,34,27,36,26,18,100,76,41,30.02,29.89,29.75,10,9,0,12,2,18,0.00,6,Rain-Snow-Thunderstorm,213
2014-2-28,41,34,27,33,29,24,100,84,50,30.03,29.97,29.83,10,9,2,9,2,16,0.00,7,Snow-Thunderstorm,203